Time,TemperatureF,DewpointF,PressureIn,WindDirection,WindDirectionDegrees,WindSpeedMPH,WindSpeedGustMPH,Humidity,HourlyPrecipIn,Conditions,Clouds,dailyrainin,SoftwareType,DateUTC
2013-03-06 00:07:00,43.5,42.2,29.62,East,88,8.0,12.0,95,0.00,,,0.15,Wunderground v.1.15,2013-03-06 08:07:00,
2013-03-06 00:17:00,43.5,42.2,29.61,ESE,103,7.0,11.0,95,0.00,,,0.15,Wunderground v.1.15,2013-03-06 08:17:00,
2013-03-06 00:26:00,43.5,42.2,29.61,East,100,5.0,8.0,95,0.00,,,0.15,Wunderground v.1.15,2013-03-06 08:26:00,
2013-03-06 00:32:00,43.5,42.2,29.61,East,99,6.0,6.0,95,0.00,,,0.15,Wunderground v.1.15,2013-03-06 08:32:00,
2013-03-06 00:42:00,43.5,42.2,29.61,East,98,6.0,11.0,95,0.00,,,0.16,Wunderground v.1.15,2013-03-06 08:42:00,
2013-03-06 00:52:00,43.6,42.3,29.61,East,92,6.0,11.0,95,0.00,,,0.16,Wunderground v.1.15,2013-03-06 08:52:00,
2013-03-06 01:02:00,43.6,42.3,29.61,East,99,4.0,4.0,95,0.00,,,0.17,Wunderground v.1.15,2013-03-06 09:02:00,
2013-03-06 01:07:00,43.6,42.3,29.61,East,99,4.0,5.0,95,0.00,,,0.17,Wunderground v.1.15,2013-03-06 09:07:00,
2013-03-06 01:17:00,43.5,42.2,29.61,East,101,2.0,4.0,95,0.05,,,0.18,Wunderground v.1.15,2013-03-06 09:17:00,
2013-03-06 01:27:00,43.4,42.1,29.61,East,101,1.0,2.0,95,0.05,,,0.18,Wunderground v.1.15,2013-03-06 09:27:00,
2013-03-06 01:37:00,43.4,42.1,29.61,East,101,0.0,2.0,95,0.04,,,0.19,Wunderground v.1.15,2013-03-06 09:37:00,
2013-03-06 01:47:00,43.4,42.1,29.61,East,101,1.0,4.0,95,0.06,,,0.20,Wunderground v.1.15,2013-03-06 09:47:00,
2013-03-06 01:57:00,43.4,42.1,29.60,East,101,0.0,2.0,95,0.04,,,0.21,Wunderground v.1.15,2013-03-06 09:57:00,
2013-03-06 02:07:00,43.3,42.0,29.60,East,101,0.0,1.0,95,0.04,,,0.21,Wunderground v.1.15,2013-03-06 10:07:00,
2013-03-06 02:17:00,43.4,42.1,29.60,East,101,1.0,4.0,95,0.04,,,0.22,Wunderground v.1.15,2013-03-06 10:17:00,
2013-03-06 02:27:00,43.4,42.1,29.60,East,101,1.0,4.0,95,0.04,,,0.22,Wunderground v.1.15,2013-03-06 10:27:00,
2013-03-06 02:37:00,43.4,42.1,29.59,East,101,1.0,4.0,95,0.00,,,0.22,Wunderground v.1.15,2013-03-06 10:37:00,
2013-03-06 02:47:00,43.3,42.0,29.59,East,101,3.0,3.0,95,0.00,,,0.23,Wunderground v.1.15,2013-03-06 10:47:00,
2013-03-06 02:52:00,43.3,42.0,29.58,East,101,3.0,6.0,95,0.00,,,0.23,Wunderground v.1.15,2013-03-06 10:52:00,
2013-03-06 03:02:00,43.3,42.0,29.58,East,101,1.0,4.0,95,0.00,,,0.23,Wunderground v.1.15,2013-03-06 11:02:00,
2013-03-06 03:12:00,43.2,42.1,29.58,East,101,0.0,2.0,96,0.00,,,0.24,Wunderground v.1.15,2013-03-06 11:12:00,
2013-03-06 03:22:00,43.1,42.0,29.58,East,101,0.0,2.0,96,0.00,,,0.24,Wunderground v.1.15,2013-03-06 11:22:00,
2013-03-06 03:32:00,43.1,42.0,29.58,East,101,0.0,1.0,96,0.00,,,0.24,Wunderground v.1.15,2013-03-06 11:32:00,
2013-03-06 03:42:00,43.1,42.0,29.57,East,101,0.0,2.0,96,0.00,,,0.24,Wunderground v.1.15,2013-03-06 11:42:00,
2013-03-06 03:52:00,43.2,42.1,29.57,East,101,1.0,4.0,96,0.00,,,0.24,Wunderground v.1.15,2013-03-06 11:52:00,
2013-03-06 04:02:00,43.2,42.1,29.58,East,101,1.0,2.0,96,0.00,,,0.25,Wunderground v.1.15,2013-03-06 12:02:00,
2013-03-06 04:11:00,43.1,42.0,29.58,ESE,102,2.0,2.0,96,0.04,,,0.26,Wunderground v.1.15,2013-03-06 12:11:00,
2013-03-06 04:17:00,43.0,41.9,29.58,ESE,103,2.0,6.0,96,0.04,,,0.26,Wunderground v.1.15,2013-03-06 12:17:00,
2013-03-06 04:27:00,42.9,41.8,29.58,ESE,113,2.0,7.0,96,0.04,,,0.26,Wunderground v.1.15,2013-03-06 12:27:00,
2013-03-06 04:37:00,42.9,41.8,29.58,ESE,113,2.0,5.0,96,0.00,,,0.26,Wunderground v.1.15,2013-03-06 12:37:00,
2013-03-06 04:47:00,42.7,41.6,29.58,ESE,113,1.0,6.0,96,0.00,,,0.26,Wunderground v.1.15,2013-03-06 12:47:00,
2013-03-06 04:52:00,42.6,41.5,29.58,ESE,113,1.0,1.0,96,0.00,,,0.26,Wunderground v.1.15,2013-03-06 12:52:00,
2013-03-06 04:57:00,42.5,41.4,29.58,ESE,113,1.0,2.0,96,0.00,,,0.27,Wunderground v.1.15,2013-03-06 12:57:00,
2013-03-06 05:07:00,42.5,42.5,29.58,ESE,113,0.0,2.0,100,0.00,,,0.27,Wunderground v.1.15,2013-03-06 13:07:00,
2013-03-06 05:17:00,42.4,41.3,29.58,ESE,113,0.0,1.0,96,0.00,,,0.27,Wunderground v.1.15,2013-03-06 13:17:00,
2013-03-06 05:27:00,42.5,42.5,29.58,ESE,113,0.0,2.0,100,0.00,,,0.27,Wunderground v.1.15,2013-03-06 13:27:00,
2013-03-06 05:37:00,42.4,41.3,29.58,ESE,113,0.0,2.0,96,0.00,,,0.27,Wunderground v.1.15,2013-03-06 13:37:00,
2013-03-06 05:46:00,42.3,41.2,29.58,ESE,113,0.0,2.0,96,0.00,,,0.28,Wunderground v.1.15,2013-03-06 13:46:00,
2013-03-06 05:52:00,42.2,41.1,29.58,ESE,113,0.0,2.0,96,0.00,,,0.28,Wunderground v.1.15,2013-03-06 13:52:00,
2013-03-06 06:02:00,42.1,41.0,29.58,ESE,113,0.0,1.0,96,0.00,,,0.28,Wunderground v.1.15,2013-03-06 14:02:00,
2013-03-06 06:07:00,42.0,40.9,29.58,ESE,113,0.0,1.0,96,0.00,,,0.28,Wunderground v.1.15,2013-03-06 14:07:00,
2013-03-06 06:17:00,42.0,40.9,29.58,ESE,113,0.0,2.0,96,0.00,,,0.28,Wunderground v.1.15,2013-03-06 14:17:00,
2013-03-06 06:27:00,42.0,40.9,29.58,ESE,113,0.0,1.0,96,0.00,,,0.29,Wunderground v.1.15,2013-03-06 14:27:00,
2013-03-06 06:36:00,41.9,40.8,29.59,ESE,113,0.0,1.0,96,0.00,,,0.29,Wunderground v.1.15,2013-03-06 14:36:00,
2013-03-06 06:42:00,41.9,40.8,29.59,ESE,113,0.0,2.0,96,0.00,,,0.29,Wunderground v.1.15,2013-03-06 14:42:00,
2013-03-06 06:52:00,41.9,40.8,29.59,ESE,113,0.0,5.0,96,0.00,,,0.29,Wunderground v.1.15,2013-03-06 14:52:00,
2013-03-06 06:57:00,42.0,40.9,29.59,ESE,113,0.0,5.0,96,0.00,,,0.29,Wunderground v.1.15,2013-03-06 14:57:00,
2013-03-06 07:07:00,42.1,41.0,29.60,ESE,113,0.0,4.0,96,0.00,,,0.29,Wunderground v.1.15,2013-03-06 15:07:00,
2013-03-06 07:17:00,42.1,41.0,29.60,ESE,115,2.0,5.0,96,0.00,,,0.29,Wunderground v.1.15,2013-03-06 15:17:00,
2013-03-06 07:27:00,42.1,41.0,29.60,ESE,115,3.0,6.0,96,0.00,,,0.29,Wunderground v.1.15,2013-03-06 15:27:00,
2013-03-06 07:37:00,42.1,41.0,29.60,ESE,115,2.0,5.0,96,0.00,,,0.00,Wunderground v.1.15,2013-03-06 15:37:00,
2013-03-06 07:47:00,42.1,41.0,29.61,ESE,119,2.0,6.0,96,0.00,,,0.01,Wunderground v.1.15,2013-03-06 15:47:00,
2013-03-06 07:52:00,42.1,41.0,29.61,ESE,119,3.0,7.0,96,0.00,,,0.01,Wunderground v.1.15,2013-03-06 15:52:00,
2013-03-06 08:02:00,42.2,41.1,29.61,SE,134,4.0,8.0,96,0.00,,,0.02,Wunderground v.1.15,2013-03-06 16:02:00,
2013-03-06 08:12:00,42.2,41.1,29.62,SE,142,5.0,5.0,96,0.00,,,0.02,Wunderground v.1.15,2013-03-06 16:12:00,
2013-03-06 08:22:00,42.3,41.2,29.62,SSE,159,5.0,5.0,96,0.00,,,0.02,Wunderground v.1.15,2013-03-06 16:22:00,
2013-03-06 08:32:00,42.2,41.1,29.63,SSE,152,6.0,10.0,96,0.00,,,0.02,Wunderground v.1.15,2013-03-06 16:32:00,
2013-03-06 08:37:00,42.2,41.1,29.63,SSE,152,6.0,11.0,96,0.00,,,0.02,Wunderground v.1.15,2013-03-06 16:37:00,
2013-03-06 08:47:00,42.2,41.1,29.63,SSE,164,7.0,8.0,96,0.00,,,0.02,Wunderground v.1.15,2013-03-06 16:47:00,
2013-03-06 08:52:00,42.2,41.1,29.64,SSE,166,6.0,6.0,96,0.00,,,0.03,Wunderground v.1.15,2013-03-06 16:52:00,
2013-03-06 09:02:00,42.3,41.2,29.64,SSE,149,6.0,9.0,96,0.00,,,0.03,Wunderground v.1.15,2013-03-06 17:02:00,
2013-03-06 09:12:00,42.4,41.3,29.65,SE,146,4.0,8.0,96,0.00,,,0.04,Wunderground v.1.15,2013-03-06 17:12:00,
2013-03-06 09:22:00,42.6,41.5,29.65,SSE,168,2.0,6.0,96,0.00,,,0.04,Wunderground v.1.15,2013-03-06 17:22:00,
2013-03-06 09:32:00,42.8,41.7,29.65,SSE,162,5.0,10.0,96,0.00,,,0.04,Wunderground v.1.15,2013-03-06 17:32:00,
2013-03-06 09:37:00,42.9,41.8,29.66,SSW,200,5.0,10.0,96,0.00,,,0.04,Wunderground v.1.15,2013-03-06 17:37:00,
2013-03-06 09:47:00,43.2,42.1,29.66,South,183,5.0,9.0,96,0.00,,,0.04,Wunderground v.1.15,2013-03-06 17:47:00,
2013-03-06 09:57:00,43.7,42.6,29.67,South,186,6.0,13.0,96,0.00,,,0.05,Wunderground v.1.15,2013-03-06 17:57:00,
2013-03-06 10:07:00,44.6,43.5,29.67,SW,233,9.0,16.0,96,0.00,,,0.05,Wunderground v.1.15,2013-03-06 18:07:00,
2013-03-06 10:12:00,44.8,43.7,29.67,WSW,245,9.0,15.0,96,0.00,,,0.05,Wunderground v.1.15,2013-03-06 18:12:00,
2013-03-06 10:22:00,45.2,43.9,29.67,SW,233,9.0,9.0,95,0.00,,,0.05,Wunderground v.1.15,2013-03-06 18:22:00,
2013-03-06 10:32:00,45.5,43.9,29.68,SW,219,9.0,15.0,94,0.00,,,0.05,Wunderground v.1.15,2013-03-06 18:32:00,
2013-03-06 10:42:00,45.8,43.9,29.69,SW,233,9.0,14.0,93,0.00,,,0.05,Wunderground v.1.15,2013-03-06 18:42:00,
2013-03-06 10:47:00,45.9,44.0,29.69,SW,228,10.0,15.0,93,0.00,,,0.05,Wunderground v.1.15,2013-03-06 18:47:00,
2013-03-06 10:57:00,45.2,43.3,29.70,WSW,246,12.0,20.0,93,0.00,,,0.05,Wunderground v.1.15,2013-03-06 18:57:00,
2013-03-06 11:07:00,45.0,43.1,29.70,SW,231,12.0,14.0,93,0.00,,,0.05,Wunderground v.1.15,2013-03-06 19:07:00,
2013-03-06 11:12:00,45.1,43.2,29.70,WSW,247,11.0,11.0,93,0.00,,,0.05,Wunderground v.1.15,2013-03-06 19:12:00,
2013-03-06 11:22:00,45.4,43.5,29.71,SSW,211,9.0,14.0,93,0.00,,,0.05,Wunderground v.1.15,2013-03-06 19:22:00,
2013-03-06 11:27:00,45.4,43.5,29.72,WSW,245,9.0,14.0,93,0.00,,,0.05,Wunderground v.1.15,2013-03-06 19:27:00,
2013-03-06 11:37:00,45.8,43.6,29.72,SW,235,9.0,16.0,92,0.00,,,0.05,Wunderground v.1.15,2013-03-06 19:37:00,
2013-03-06 11:47:00,46.1,43.9,29.72,SSW,212,9.0,16.0,92,0.00,,,0.05,Wunderground v.1.15,2013-03-06 19:47:00,
2013-03-06 11:57:00,46.3,44.1,29.73,WSW,244,9.0,11.0,92,0.00,,,0.05,Wunderground v.1.15,2013-03-06 19:57:00,
2013-03-06 12:07:00,46.6,44.1,29.74,SSW,200,11.0,21.0,91,0.00,,,0.05,Wunderground v.1.15,2013-03-06 20:07:00,
2013-03-06 12:17:00,46.6,44.4,29.74,SW,215,11.0,21.0,92,0.00,,,0.05,Wunderground v.1.15,2013-03-06 20:17:00,
2013-03-06 12:27:00,46.7,44.2,29.75,SW,227,10.0,21.0,91,0.00,,,0.05,Wunderground v.1.15,2013-03-06 20:27:00,
2013-03-06 12:37:00,46.6,44.1,29.75,WSW,240,11.0,17.0,91,0.00,,,0.05,Wunderground v.1.15,2013-03-06 20:37:00,
2013-03-06 12:47:00,46.7,43.6,29.76,SSW,211,11.0,11.0,89,0.00,,,0.05,Wunderground v.1.15,2013-03-06 20:47:00,
2013-03-06 12:57:00,46.4,43.6,29.76,SW,234,11.0,18.0,90,0.00,,,0.05,Wunderground v.1.15,2013-03-06 20:57:00,
2013-03-06 13:02:00,46.8,44.0,29.76,SW,236,9.0,15.0,90,0.00,,,0.05,Wunderground v.1.15,2013-03-06 21:02:00,
2013-03-06 13:12:00,47.1,44.3,29.77,SSW,198,11.0,18.0,90,0.00,,,0.05,Wunderground v.1.15,2013-03-06 21:12:00,
2013-03-06 13:22:00,47.3,43.9,29.77,WSW,237,12.0,12.0,88,0.00,,,0.05,Wunderground v.1.15,2013-03-06 21:22:00,
2013-03-06 13:32:00,46.9,43.8,29.77,WSW,242,11.0,19.0,89,0.00,,,0.05,Wunderground v.1.15,2013-03-06 21:32:00,
2013-03-06 13:42:00,46.7,44.2,29.78,SW,221,12.0,20.0,91,0.00,,,0.05,Wunderground v.1.15,2013-03-06 21:42:00,
2013-03-06 13:47:00,46.9,44.4,29.78,SW,222,11.0,20.0,91,0.00,,,0.05,Wunderground v.1.15,2013-03-06 21:47:00,
2013-03-06 13:57:00,47.3,44.5,29.78,SW,222,11.0,12.0,90,0.00,,,0.05,Wunderground v.1.15,2013-03-06 21:57:00,
2013-03-06 14:07:00,47.6,44.2,29.78,SSW,208,13.0,21.0,88,0.00,,,0.05,Wunderground v.1.15,2013-03-06 22:07:00,
2013-03-06 14:17:00,47.8,44.1,29.79,SSW,213,13.0,24.0,87,0.00,,,0.05,Wunderground v.1.15,2013-03-06 22:17:00,
2013-03-06 14:22:00,48.1,44.4,29.79,WSW,248,11.0,11.0,87,0.00,,,0.05,Wunderground v.1.15,2013-03-06 22:22:00,
2013-03-06 14:32:00,47.7,44.0,29.80,SW,227,12.0,12.0,87,0.00,,,0.06,Wunderground v.1.15,2013-03-06 22:32:00,
2013-03-06 14:37:00,45.7,42.1,29.80,SW,236,12.0,24.0,87,0.17,,,0.08,Wunderground v.1.15,2013-03-06 22:37:00,
2013-03-06 14:47:00,46.4,43.9,29.80,SW,214,11.0,18.0,91,0.05,,,0.08,Wunderground v.1.15,2013-03-06 22:47:00,
2013-03-06 14:52:00,46.9,44.4,29.81,WSW,240,11.0,11.0,91,0.00,,,0.08,Wunderground v.1.15,2013-03-06 22:52:00,
2013-03-06 15:02:00,47.3,44.5,29.81,SW,234,11.0,20.0,90,0.00,,,0.08,Wunderground v.1.15,2013-03-06 23:02:00,
2013-03-06 15:12:00,47.5,44.1,29.81,SSW,201,11.0,20.0,88,0.00,,,0.08,Wunderground v.1.15,2013-03-06 23:12:00,
2013-03-06 15:22:00,47.4,44.0,29.81,SSW,208,12.0,12.0,88,0.00,,,0.08,Wunderground v.1.15,2013-03-06 23:22:00,
2013-03-06 15:32:00,47.4,44.0,29.82,SW,221,12.0,22.0,88,0.00,,,0.08,Wunderground v.1.15,2013-03-06 23:32:00,
2013-03-06 15:37:00,46.5,42.5,29.82,SSW,205,14.0,23.0,86,0.00,,,0.08,Wunderground v.1.15,2013-03-06 23:37:00,
2013-03-06 15:47:00,47.1,43.7,29.82,SW,224,11.0,22.0,88,0.00,,,0.08,Wunderground v.1.15,2013-03-06 23:47:00,
2013-03-06 15:57:00,47.5,43.5,29.83,South,190,12.0,21.0,86,0.00,,,0.08,Wunderground v.1.15,2013-03-06 23:57:00,
2013-03-06 16:07:00,47.7,43.7,29.83,SW,223,11.0,24.0,86,0.00,,,0.08,Wunderground v.1.15,2013-03-07 00:07:00,
2013-03-06 16:12:00,47.5,43.8,29.83,SSW,194,11.0,18.0,87,0.00,,,0.08,Wunderground v.1.15,2013-03-07 00:12:00,
2013-03-06 16:22:00,47.2,43.5,29.83,SW,227,12.0,12.0,87,0.00,,,0.08,Wunderground v.1.15,2013-03-07 00:22:00,
2013-03-06 16:32:00,46.7,42.7,29.83,SW,225,12.0,12.0,86,0.00,,,0.08,Wunderground v.1.15,2013-03-07 00:32:00,
2013-03-06 16:37:00,46.7,42.4,29.83,WSW,238,13.0,13.0,85,0.00,,,0.08,Wunderground v.1.15,2013-03-07 00:37:00,
2013-03-06 16:42:00,46.8,42.8,29.83,SSW,202,14.0,14.0,86,0.00,,,0.08,Wunderground v.1.15,2013-03-07 00:42:00,
2013-03-06 16:52:00,47.0,43.0,29.83,South,177,9.0,19.0,86,0.00,,,0.08,Wunderground v.1.15,2013-03-07 00:52:00,
2013-03-06 17:02:00,47.0,43.0,29.84,SSW,206,12.0,12.0,86,0.00,,,0.08,Wunderground v.1.15,2013-03-07 01:02:00,
2013-03-06 17:12:00,47.2,43.8,29.84,WSW,238,11.0,16.0,88,0.00,,,0.08,Wunderground v.1.15,2013-03-07 01:12:00,
2013-03-06 17:17:00,47.1,43.4,29.84,SW,218,11.0,19.0,87,0.00,,,0.08,Wunderground v.1.15,2013-03-07 01:17:00,
2013-03-06 17:27:00,47.1,43.4,29.84,WSW,246,14.0,24.0,87,0.00,,,0.08,Wunderground v.1.15,2013-03-07 01:27:00,
2013-03-06 17:32:00,46.9,43.2,29.84,South,184,12.0,23.0,87,0.00,,,0.08,Wunderground v.1.15,2013-03-07 01:32:00,
2013-03-06 17:42:00,46.0,42.6,29.85,South,175,11.0,21.0,88,0.00,,,0.08,Wunderground v.1.15,2013-03-07 01:42:00,
2013-03-06 17:52:00,45.4,42.1,29.85,SSW,203,11.0,11.0,88,0.00,,,0.08,Wunderground v.1.15,2013-03-07 01:52:00,
2013-03-06 18:02:00,45.3,42.2,29.85,SSW,202,10.0,10.0,89,0.00,,,0.09,Wunderground v.1.15,2013-03-07 02:02:00,
2013-03-06 18:07:00,45.1,42.1,29.86,SSW,207,8.0,12.0,89,0.00,,,0.09,Wunderground v.1.15,2013-03-07 02:07:00,
2013-03-06 18:17:00,44.9,41.9,29.86,SSE,163,7.0,16.0,89,0.00,,,0.09,Wunderground v.1.15,2013-03-07 02:17:00,
2013-03-06 18:22:00,44.7,41.7,29.86,South,175,7.0,16.0,89,0.00,,,0.09,Wunderground v.1.15,2013-03-07 02:22:00,
2013-03-06 18:32:00,44.6,41.6,29.86,SSE,160,7.0,7.0,89,0.00,,,0.09,Wunderground v.1.15,2013-03-07 02:32:00,
2013-03-06 18:37:00,44.6,41.6,29.86,SSW,206,6.0,11.0,89,0.00,,,0.09,Wunderground v.1.15,2013-03-07 02:37:00,
2013-03-06 18:47:00,44.7,41.7,29.87,SSE,153,6.0,15.0,89,0.00,,,0.09,Wunderground v.1.15,2013-03-07 02:47:00,
2013-03-06 18:57:00,44.5,41.5,29.88,South,191,7.0,13.0,89,0.00,,,0.09,Wunderground v.1.15,2013-03-07 02:57:00,
2013-03-06 19:07:00,44.4,41.7,29.88,SSE,157,6.0,8.0,90,0.00,,,0.09,Wunderground v.1.15,2013-03-07 03:07:00,
2013-03-06 19:12:00,44.5,41.7,29.88,SSW,207,6.0,13.0,90,0.00,,,0.09,Wunderground v.1.15,2013-03-07 03:12:00,
2013-03-06 19:22:00,44.4,41.7,29.89,South,175,8.0,8.0,90,0.00,,,0.10,Wunderground v.1.15,2013-03-07 03:22:00,
2013-03-06 19:32:00,44.1,41.6,29.89,SSE,159,8.0,8.0,91,0.00,,,0.10,Wunderground v.1.15,2013-03-07 03:32:00,
2013-03-06 19:37:00,44.2,41.7,29.89,South,184,7.0,9.0,91,0.00,,,0.10,Wunderground v.1.15,2013-03-07 03:37:00,
2013-03-06 19:47:00,44.2,41.7,29.90,SSE,151,6.0,14.0,91,0.00,,,0.10,Wunderground v.1.15,2013-03-07 03:47:00,
2013-03-06 19:57:00,44.3,41.8,29.90,SSE,157,7.0,13.0,91,0.00,,,0.10,Wunderground v.1.15,2013-03-07 03:57:00,
2013-03-06 20:07:00,44.4,41.7,29.91,SSW,203,7.0,9.0,90,0.00,,,0.11,Wunderground v.1.15,2013-03-07 04:07:00,
2013-03-06 20:12:00,43.9,40.9,29.91,SSW,202,7.0,14.0,89,0.00,,,0.11,Wunderground v.1.15,2013-03-07 04:12:00,
2013-03-06 20:22:00,44.1,41.4,29.91,SSW,207,8.0,12.0,90,0.00,,,0.11,Wunderground v.1.15,2013-03-07 04:22:00,
2013-03-06 20:32:00,44.2,41.2,29.91,SE,144,7.0,7.0,89,0.00,,,0.11,Wunderground v.1.15,2013-03-07 04:32:00,
2013-03-06 20:42:00,44.1,41.4,29.91,SSE,147,6.0,6.0,90,0.00,,,0.11,Wunderground v.1.15,2013-03-07 04:42:00,
2013-03-06 20:52:00,44.0,41.5,29.92,South,169,9.0,9.0,91,0.00,,,0.11,Wunderground v.1.15,2013-03-07 04:52:00,
2013-03-06 20:57:00,43.9,41.4,29.91,SE,143,8.0,12.0,91,0.00,,,0.11,Wunderground v.1.15,2013-03-07 04:57:00,
2013-03-06 21:02:00,43.9,41.4,29.91,SE,146,7.0,7.0,91,0.00,,,0.11,Wunderground v.1.15,2013-03-07 05:02:00,
2013-03-06 21:07:00,43.9,41.4,29.91,SSE,165,6.0,12.0,91,0.00,,,0.11,Wunderground v.1.15,2013-03-07 05:07:00,
2013-03-06 21:12:00,44.0,41.5,29.92,SE,143,5.0,5.0,91,0.00,,,0.11,Wunderground v.1.15,2013-03-07 05:12:00,
2013-03-06 21:22:00,44.0,41.5,29.92,SE,139,5.0,11.0,91,0.00,,,0.11,Wunderground v.1.15,2013-03-07 05:22:00,
2013-03-06 21:27:00,44.0,41.5,29.93,SE,145,5.0,11.0,91,0.00,,,0.11,Wunderground v.1.15,2013-03-07 05:27:00,
2013-03-06 21:37:00,44.0,41.5,29.93,SE,140,7.0,12.0,91,0.00,,,0.11,Wunderground v.1.15,2013-03-07 05:37:00,
2013-03-06 21:42:00,44.0,41.5,29.93,SSE,153,7.0,13.0,91,0.00,,,0.11,Wunderground v.1.15,2013-03-07 05:42:00,
2013-03-06 21:52:00,44.0,41.5,29.93,SSE,156,7.0,7.0,91,0.00,,,0.11,Wunderground v.1.15,2013-03-07 05:52:00,
2013-03-06 22:02:00,43.9,41.4,29.94,SSE,152,7.0,14.0,91,0.00,,,0.11,Wunderground v.1.15,2013-03-07 06:02:00,
2013-03-06 22:07:00,43.8,41.3,29.94,SE,134,7.0,14.0,91,0.00,,,0.11,Wunderground v.1.15,2013-03-07 06:07:00,
2013-03-06 22:17:00,43.6,40.9,29.95,SE,142,6.0,14.0,90,0.00,,,0.11,Wunderground v.1.15,2013-03-07 06:17:00,
2013-03-06 22:27:00,43.4,40.7,29.95,ESE,109,5.0,7.0,90,0.00,,,0.11,Wunderground v.1.15,2013-03-07 06:27:00,
2013-03-06 22:32:00,43.3,40.6,29.95,SE,126,5.0,7.0,90,0.00,,,0.11,Wunderground v.1.15,2013-03-07 06:32:00,
2013-03-06 22:42:00,43.1,40.1,29.95,SE,124,5.0,5.0,89,0.00,,,0.11,Wunderground v.1.15,2013-03-07 06:42:00,
2013-03-06 22:52:00,43.1,40.1,29.95,ESE,105,5.0,9.0,89,0.00,,,0.11,Wunderground v.1.15,2013-03-07 06:52:00,
2013-03-06 23:02:00,43.1,40.1,29.95,ESE,109,5.0,9.0,89,0.00,,,0.11,Wunderground v.1.15,2013-03-07 07:02:00,
2013-03-06 23:12:00,43.0,40.0,29.96,ESE,111,5.0,5.0,89,0.00,,,0.11,Wunderground v.1.15,2013-03-07 07:12:00,
2013-03-06 23:22:00,42.9,39.6,29.96,ESE,109,4.0,8.0,88,0.00,,,0.11,Wunderground v.1.15,2013-03-07 07:22:00,
2013-03-06 23:32:00,42.8,39.8,29.96,ESE,110,5.0,7.0,89,0.00,,,0.11,Wunderground v.1.15,2013-03-07 07:32:00,
2013-03-06 23:42:00,42.8,39.8,29.96,ESE,107,5.0,7.0,89,0.00,,,0.11,Wunderground v.1.15,2013-03-07 07:42:00,
2013-03-06 23:47:00,42.7,39.7,29.96,ESE,107,5.0,8.0,89,0.00,,,0.11,Wunderground v.1.15,2013-03-07 07:47:00,
2013-03-06 23:57:00,42.7,39.7,29.97,ESE,105,5.0,8.0,89,0.00,,,0.11,Wunderground v.1.15,2013-03-07 07:57:00,